Crumpler, West Virginia
Current Conditions -  °F | °C
As of 9:33 AM on Thursday 30 Oct 2014 (Local Time) from KBLF Reporting Station
Few Clouds Few Clouds  
Wind Chill: 36°   Ceiling: Unl
Heat Index: 40°   Visibility: 10mi
Dew Point: 36°   Wind: 6mph
Humidity: 86%   Direction: 260°W
Pressure: 30.11"   Gusts: NA
Location:  37.42°N, 81.34°W
Report Text: KBLF 301333Z AUTO 26005KT 10SM FEW002 04/02 A3011 RMK AO2 T00440022
Loading
Personal Weather Stations






























Interactive Weather Map
Tropical Storm Tracking
New forecast layout! Learn more

10-Day Weather Forecast

Advertisements
Track Severe Weather on mobile